sensor_id;sensor_type;location;lat;lon;timestamp;pressure;altitude;pressure_sealevel;temperature;humidity
3082;BME280;1551;51.046;7.010;2023-02-18T00:00:50;101633.22;;;12.66;nan
3082;BME280;1551;51.046;7.010;2023-02-18T00:03:39;101632.41;;;12.55;nan
3082;BME280;1551;51.046;7.010;2023-02-18T00:06:31;101636.72;;;12.53;nan
3082;BME280;1551;51.046;7.010;2023-02-18T00:09:21;101629.84;;;12.55;nan
3082;BME280;1551;51.046;7.010;2023-02-18T00:12:09;101638.44;;;12.51;nan
3082;BME280;1551;51.046;7.010;2023-02-18T00:14:58;101631.56;;;12.50;nan
3082;BME280;1551;51.046;7.010;2023-02-18T00:17:47;101633.28;;;12.56;nan
3082;BME280;1551;51.046;7.010;2023-02-18T00:20:38;101627.31;;;12.45;nan
3082;BME280;1551;51.046;7.010;2023-02-18T00:23:27;101625.59;;;12.43;nan
3082;BME280;1551;51.046;7.010;2023-02-18T00:26:17;101620.47;;;12.45;nan
3082;BME280;1551;51.046;7.010;2023-02-18T00:29:06;101626.44;;;12.50;nan
3082;BME280;1551;51.046;7.010;2023-02-18T00:31:55;101624.72;;;12.52;nan
3082;BME280;1551;51.046;7.010;2023-02-18T00:34:44;101626.44;;;12.49;nan
3082;BME280;1551;51.046;7.010;2023-02-18T00:37:33;101607.63;;;12.47;nan
3082;BME280;1551;51.046;7.010;2023-02-18T00:40:23;101605.06;;;12.48;nan
3082;BME280;1551;51.046;7.010;2023-02-18T00:43:12;101587.94;;;12.47;nan
3082;BME280;1551;51.046;7.010;2023-02-18T00:46:01;101593.91;;;12.48;nan
3082;BME280;1551;51.046;7.010;2023-02-18T00:48:51;101590.53;;;12.47;nan
3082;BME280;1551;51.046;7.010;2023-02-18T00:51:41;101585.34;;;12.53;nan
3082;BME280;1551;51.046;7.010;2023-02-18T00:54:30;101586.19;;;12.57;nan
3082;BME280;1551;51.046;7.010;2023-02-18T00:57:19;101583.59;;;12.60;nan
3082;BME280;1551;51.046;7.010;2023-02-18T01:00:09;101592.19;;;12.56;nan
3082;BME280;1551;51.046;7.010;2023-02-18T01:02:58;101592.22;;;12.54;nan
3082;BME280;1551;51.046;7.010;2023-02-18T01:05:48;101583.63;;;12.52;nan
3082;BME280;1551;51.046;7.010;2023-02-18T01:08:38;101573.38;;;12.54;nan
3082;BME280;1551;51.046;7.010;2023-02-18T01:11:28;101573.34;;;12.58;nan
3082;BME280;1551;51.046;7.010;2023-02-18T01:14:17;101575.94;;;12.52;nan
3082;BME280;1551;51.046;7.010;2023-02-18T01:17:06;101564.81;;;12.49;nan
3082;BME280;1551;51.046;7.010;2023-02-18T01:19:55;101574.22;;;12.50;nan
3082;BME280;1551;51.046;7.010;2023-02-18T01:22:44;101574.22;;;12.56;nan
3082;BME280;1551;51.046;7.010;2023-02-18T01:25:34;101563.06;;;12.57;nan
3082;BME280;1551;51.046;7.010;2023-02-18T01:28:23;101568.22;;;12.52;nan
3082;BME280;1551;51.046;7.010;2023-02-18T01:31:15;101564.81;;;12.50;nan
3082;BME280;1551;51.046;7.010;2023-02-18T01:34:05;101551.13;;;12.54;nan
3082;BME280;1551;51.046;7.010;2023-02-18T01:36:54;101558.81;;;12.59;nan
3082;BME280;1551;51.046;7.010;2023-02-18T01:39:43;101569.06;;;12.57;nan
3082;BME280;1551;51.046;7.010;2023-02-18T01:42:33;101555.41;;;12.54;nan
3082;BME280;1551;51.046;7.010;2023-02-18T01:46:05;101561.38;;;12.56;nan
3082;BME280;1551;51.046;7.010;2023-02-18T01:48:57;101560.50;;;12.60;nan
3082;BME280;1551;51.046;7.010;2023-02-18T01:51:54;101554.50;;;12.61;nan
3082;BME280;1551;51.046;7.010;2023-02-18T01:54:48;101545.97;;;12.53;nan
3082;BME280;1551;51.046;7.010;2023-02-18T01:57:38;101543.41;;;12.53;nan
3082;BME280;1551;51.046;7.010;2023-02-18T02:00:27;101533.16;;;12.54;nan
3082;BME280;1551;51.046;7.010;2023-02-18T02:03:16;101530.59;;;12.54;nan
3082;BME280;1551;51.046;7.010;2023-02-18T02:06:13;101526.28;;;12.56;nan
3082;BME280;1551;51.046;7.010;2023-02-18T02:09:04;101482.75;;;12.29;nan
3082;BME280;1551;51.046;7.010;2023-02-18T02:18:34;101516.03;;;12.50;nan
3082;BME280;1551;51.046;7.010;2023-02-18T02:25:00;101517.72;;;12.56;nan
3082;BME280;1551;51.046;7.010;2023-02-18T02:28:07;101510.00;;;12.60;nan
3082;BME280;1551;51.046;7.010;2023-02-18T02:31:14;101509.97;;;12.65;nan
3082;BME280;1551;51.046;7.010;2023-02-18T02:37:38;101502.34;;;12.54;nan
3082;BME280;1551;51.046;7.010;2023-02-18T02:46:38;101475.00;;;12.41;nan
3082;BME280;1551;51.046;7.010;2023-02-18T02:49:32;101490.34;;;12.50;nan
3082;BME280;1551;51.046;7.010;2023-02-18T02:52:30;101469.81;;;12.50;nan
3082;BME280;1551;51.046;7.010;2023-02-18T02:55:19;101475.81;;;12.51;nan
3082;BME280;1551;51.046;7.010;2023-02-18T02:58:15;101474.94;;;12.56;nan
3082;BME280;1551;51.046;7.010;2023-02-18T03:01:14;101466.34;;;12.60;nan
3082;BME280;1551;51.046;7.010;2023-02-18T03:10:26;101462.91;;;12.57;nan
3082;BME280;1551;51.046;7.010;2023-02-18T03:16:44;101464.63;;;12.61;nan
3082;BME280;1551;51.046;7.010;2023-02-18T03:19:38;101433.00;;;12.54;nan
3082;BME280;1551;51.046;7.010;2023-02-18T03:22:31;101458.56;;;12.66;nan
3082;BME280;1551;51.046;7.010;2023-02-18T03:25:24;101447.44;;;12.70;nan
3082;BME280;1551;51.046;7.010;2023-02-18T03:28:17;101452.56;;;12.69;nan
3082;BME280;1551;51.046;7.010;2023-02-18T03:31:11;101446.63;;;12.65;nan
3082;BME280;1551;51.046;7.010;2023-02-18T03:34:05;101443.97;;;12.76;nan
3082;BME280;1551;51.046;7.010;2023-02-18T03:36:57;101440.59;;;12.66;nan
3082;BME280;1551;51.046;7.010;2023-02-18T03:39:51;101443.25;;;12.59;nan
3082;BME280;1551;51.046;7.010;2023-02-18T03:42:43;101438.09;;;12.57;nan
3082;BME280;1551;51.046;7.010;2023-02-18T03:45:33;101448.38;;;12.57;nan
3082;BME280;1551;51.046;7.010;2023-02-18T03:48:22;101451.81;;;12.56;nan
3082;BME280;1551;51.046;7.010;2023-02-18T03:51:14;101444.97;;;12.55;nan
3082;BME280;1551;51.046;7.010;2023-02-18T03:54:03;101439.06;;;12.41;nan
3082;BME280;1551;51.046;7.010;2023-02-18T03:56:52;101430.50;;;12.39;nan
3082;BME280;1551;51.046;7.010;2023-02-18T03:59:41;101430.56;;;12.28;nan
3082;BME280;1551;51.046;7.010;2023-02-18T04:02:30;101424.66;;;12.16;nan
3082;BME280;1551;51.046;7.010;2023-02-18T04:05:19;101434.06;;;12.14;nan
3082;BME280;1551;51.046;7.010;2023-02-18T04:08:09;101420.41;;;12.09;nan
3082;BME280;1551;51.046;7.010;2023-02-18T04:10:57;101413.56;;;12.03;nan
3082;BME280;1551;51.046;7.010;2023-02-18T04:13:46;101402.44;;;12.03;nan
3082;BME280;1551;51.046;7.010;2023-02-18T04:16:35;101402.50;;;12.00;nan
3082;BME280;1551;51.046;7.010;2023-02-18T04:19:24;101398.22;;;12.00;nan
3082;BME280;1551;51.046;7.010;2023-02-18T04:22:13;101405.00;;;12.03;nan
3082;BME280;1551;51.046;7.010;2023-02-18T04:25:03;101388.81;;;11.98;nan
3082;BME280;1551;51.046;7.010;2023-02-18T04:27:52;101382.84;;;11.94;nan
3082;BME280;1551;51.046;7.010;2023-02-18T04:30:42;101386.22;;;12.01;nan
3082;BME280;1551;51.046;7.010;2023-02-18T04:33:32;101389.69;;;11.95;nan
3082;BME280;1551;51.046;7.010;2023-02-18T04:36:21;101386.28;;;11.90;nan
3082;BME280;1551;51.046;7.010;2023-02-18T04:39:10;101373.47;;;11.83;nan
3082;BME280;1551;51.046;7.010;2023-02-18T04:41:59;101391.38;;;11.95;nan
3082;BME280;1551;51.046;7.010;2023-02-18T04:44:48;101380.28;;;11.87;nan
3082;BME280;1551;51.046;7.010;2023-02-18T04:47:37;101388.88;;;11.80;nan
3082;BME280;1551;51.046;7.010;2023-02-18T04:50:26;101374.31;;;11.82;nan
3082;BME280;1551;51.046;7.010;2023-02-18T04:53:15;101373.47;;;11.86;nan
3082;BME280;1551;51.046;7.010;2023-02-18T04:56:04;101372.63;;;11.78;nan
3082;BME280;1551;51.046;7.010;2023-02-18T04:58:53;101370.91;;;11.80;nan
3082;BME280;1551;51.046;7.010;2023-02-18T05:01:42;101367.53;;;11.76;nan
3082;BME280;1551;51.046;7.010;2023-02-18T05:04:31;101376.09;;;11.77;nan
3082;BME280;1551;51.046;7.010;2023-02-18T05:07:20;101367.53;;;11.70;nan
3082;BME280;1551;51.046;7.010;2023-02-18T05:10:14;101357.28;;;11.62;nan
3082;BME280;1551;51.046;7.010;2023-02-18T05:13:04;101359.84;;;11.65;nan
3082;BME280;1551;51.046;7.010;2023-02-18T05:15:53;101363.28;;;11.64;nan
3082;BME280;1551;51.046;7.010;2023-02-18T05:18:42;101358.16;;;11.61;nan
3082;BME280;1551;51.046;7.010;2023-02-18T05:21:31;101344.53;;;11.53;nan
3082;BME280;1551;51.046;7.010;2023-02-18T05:24:20;101353.91;;;11.57;nan
3082;BME280;1551;51.046;7.010;2023-02-18T05:27:09;101353.00;;;11.64;nan
3082;BME280;1551;51.046;7.010;2023-02-18T05:29:59;101306.09;;;11.41;nan
3082;BME280;1551;51.046;7.010;2023-02-18T05:32:48;101348.75;;;11.65;nan
3082;BME280;1551;51.046;7.010;2023-02-18T05:35:37;101356.44;;;11.62;nan
3082;BME280;1551;51.046;7.010;2023-02-18T05:38:26;101341.91;;;11.67;nan
3082;BME280;1551;51.046;7.010;2023-02-18T05:41:16;101341.91;;;11.70;nan
3082;BME280;1551;51.046;7.010;2023-02-18T05:44:06;101335.94;;;11.62;nan
3082;BME280;1551;51.046;7.010;2023-02-18T05:47:14;101334.19;;;11.65;nan
3082;BME280;1551;51.046;7.010;2023-02-18T05:50:04;101314.59;;;11.55;nan
3082;BME280;1551;51.046;7.010;2023-02-18T05:52:53;101316.28;;;11.56;nan
3082;BME280;1551;51.046;7.010;2023-02-18T05:55:42;101306.03;;;11.55;nan
3082;BME280;1551;51.046;7.010;2023-02-18T05:58:31;101318.00;;;11.51;nan
3082;BME280;1551;51.046;7.010;2023-02-18T06:01:20;101306.94;;;11.46;nan
3082;BME280;1551;51.046;7.010;2023-02-18T06:04:10;101311.19;;;11.52;nan
3082;BME280;1551;51.046;7.010;2023-02-18T06:06:59;101308.63;;;11.50;nan
3082;BME280;1551;51.046;7.010;2023-02-18T06:09:48;101301.75;;;11.54;nan
3082;BME280;1551;51.046;7.010;2023-02-18T06:12:37;101292.41;;;11.50;nan
3082;BME280;1551;51.046;7.010;2023-02-18T06:15:26;101297.50;;;11.51;nan
3082;BME280;1551;51.046;7.010;2023-02-18T06:18:15;101289.84;;;11.48;nan
3082;BME280;1551;51.046;7.010;2023-02-18T06:21:04;101293.25;;;11.53;nan
3082;BME280;1551;51.046;7.010;2023-02-18T06:23:53;101278.72;;;11.48;nan
3082;BME280;1551;51.046;7.010;2023-02-18T06:26:42;101301.75;;;11.58;nan
3082;BME280;1551;51.046;7.010;2023-02-18T06:29:32;101294.94;;;11.57;nan
3082;BME280;1551;51.046;7.010;2023-02-18T06:32:21;101292.34;;;11.65;nan
3082;BME280;1551;51.046;7.010;2023-02-18T06:35:10;101296.63;;;11.69;nan
3082;BME280;1551;51.046;7.010;2023-02-18T06:37:59;101294.00;;;11.75;nan
3082;BME280;1551;51.046;7.010;2023-02-18T06:40:48;101305.13;;;11.79;nan
3082;BME280;1551;51.046;7.010;2023-02-18T06:43:38;101285.44;;;11.74;nan
3082;BME280;1551;51.046;7.010;2023-02-18T06:46:27;101300.84;;;11.78;nan
3082;BME280;1551;51.046;7.010;2023-02-18T06:49:16;101294.84;;;11.79;nan
3082;BME280;1551;51.046;7.010;2023-02-18T06:52:05;101283.72;;;11.80;nan
3082;BME280;1551;51.046;7.010;2023-02-18T06:54:54;101282.00;;;11.82;nan
3082;BME280;1551;51.046;7.010;2023-02-18T06:57:43;101287.16;;;11.80;nan
3082;BME280;1551;51.046;7.010;2023-02-18T07:00:32;101282.00;;;11.85;nan
3082;BME280;1551;51.046;7.010;2023-02-18T07:03:21;101298.22;;;11.90;nan
3082;BME280;1551;51.046;7.010;2023-02-18T07:06:10;101285.38;;;11.90;nan
3082;BME280;1551;51.046;7.010;2023-02-18T07:08:59;101289.63;;;11.94;nan
3082;BME280;1551;51.046;7.010;2023-02-18T07:11:48;101286.19;;;11.96;nan
3082;BME280;1551;51.046;7.010;2023-02-18T07:14:37;101294.75;;;11.94;nan
3082;BME280;1551;51.046;7.010;2023-02-18T07:17:26;101297.34;;;11.95;nan
3082;BME280;1551;51.046;7.010;2023-02-18T07:20:15;101313.56;;;11.96;nan
3082;BME280;1551;51.046;7.010;2023-02-18T07:23:05;101306.69;;;12.04;nan
3082;BME280;1551;51.046;7.010;2023-02-18T07:26:05;101320.38;;;12.01;nan
3082;BME280;1551;51.046;7.010;2023-02-18T07:28:55;101311.84;;;11.99;nan
3082;BME280;1551;51.046;7.010;2023-02-18T07:31:44;101311.81;;;12.01;nan
3082;BME280;1551;51.046;7.010;2023-02-18T07:34:33;101310.09;;;12.07;nan
3082;BME280;1551;51.046;7.010;2023-02-18T07:37:22;101316.88;;;12.14;nan
3082;BME280;1551;51.046;7.010;2023-02-18T07:40:17;101316.88;;;12.13;nan
3082;BME280;1551;51.046;7.010;2023-02-18T07:43:06;101316.00;;;12.18;nan
3082;BME280;1551;51.046;7.010;2023-02-18T07:45:55;101307.41;;;12.19;nan
3082;BME280;1551;51.046;7.010;2023-02-18T07:48:44;101307.41;;;12.22;nan
3082;BME280;1551;51.046;7.010;2023-02-18T07:51:33;101311.72;;;12.17;nan
3082;BME280;1551;51.046;7.010;2023-02-18T07:54:22;101310.00;;;12.21;nan
3082;BME280;1551;51.046;7.010;2023-02-18T07:57:11;101309.16;;;12.17;nan
3082;BME280;1551;51.046;7.010;2023-02-18T08:00:00;101326.31;;;12.09;nan
3082;BME280;1551;51.046;7.010;2023-02-18T08:02:49;101322.09;;;12.02;nan
3082;BME280;1551;51.046;7.010;2023-02-18T08:05:38;101340.91;;;12.01;nan
3082;BME280;1551;51.046;7.010;2023-02-18T08:08:28;101339.19;;;12.05;nan
3082;BME280;1551;51.046;7.010;2023-02-18T08:11:18;101349.44;;;12.06;nan
3082;BME280;1551;51.046;7.010;2023-02-18T08:14:07;101363.94;;;12.09;nan
3082;BME280;1551;51.046;7.010;2023-02-18T08:16:56;101366.53;;;12.09;nan
3082;BME280;1551;51.046;7.010;2023-02-18T08:19:45;101364.03;;;11.95;nan
3082;BME280;1551;51.046;7.010;2023-02-18T08:22:35;101381.16;;;11.86;nan
3082;BME280;1551;51.046;7.010;2023-02-18T08:25:24;101364.94;;;11.82;nan
3082;BME280;1551;51.046;7.010;2023-02-18T08:28:13;101382.84;;;11.87;nan
3082;BME280;1551;51.046;7.010;2023-02-18T08:31:02;101377.75;;;11.85;nan
3082;BME280;1551;51.046;7.010;2023-02-18T08:33:53;101385.44;;;11.85;nan
3082;BME280;1551;51.046;7.010;2023-02-18T08:36:42;101396.53;;;11.84;nan
3082;BME280;1551;51.046;7.010;2023-02-18T08:39:35;101388.88;;;11.78;nan
3082;BME280;1551;51.046;7.010;2023-02-18T08:42:25;101399.13;;;11.80;nan
3082;BME280;1551;51.046;7.010;2023-02-18T08:45:14;101394.88;;;11.80;nan
3082;BME280;1551;51.046;7.010;2023-02-18T08:48:07;101389.72;;;11.80;nan
3082;BME280;1551;51.046;7.010;2023-02-18T08:50:57;101398.28;;;11.78;nan
3082;BME280;1551;51.046;7.010;2023-02-18T08:53:46;101384.66;;;11.68;nan
3082;BME280;1551;51.046;7.010;2023-02-18T08:56:35;101382.94;;;11.68;nan
3082;BME280;1551;51.046;7.010;2023-02-18T08:59:24;101382.94;;;11.68;nan
3082;BME280;1551;51.046;7.010;2023-02-18T09:02:14;101399.16;;;11.66;nan
3082;BME280;1551;51.046;7.010;2023-02-18T09:05:04;101383.78;;;11.70;nan
3082;BME280;1551;51.046;7.010;2023-02-18T09:07:53;101384.59;;;11.77;nan
3082;BME280;1551;51.046;7.010;2023-02-18T09:10:42;101377.75;;;11.82;nan
3082;BME280;1551;51.046;7.010;2023-02-18T09:13:32;101364.13;;;11.71;nan
3082;BME280;1551;51.046;7.010;2023-02-18T09:16:21;101371.78;;;11.80;nan
3082;BME280;1551;51.046;7.010;2023-02-18T09:19:10;101365.75;;;11.90;nan
3082;BME280;1551;51.046;7.010;2023-02-18T09:21:59;101367.50;;;11.81;nan
3082;BME280;1551;51.046;7.010;2023-02-18T09:24:48;101361.50;;;11.82;nan
3082;BME280;1551;51.046;7.010;2023-02-18T09:27:37;101365.81;;;11.81;nan
3082;BME280;1551;51.046;7.010;2023-02-18T09:30:26;101369.19;;;11.82;nan
3082;BME280;1551;51.046;7.010;2023-02-18T09:33:16;101360.66;;;11.80;nan
3082;BME280;1551;51.046;7.010;2023-02-18T09:36:06;101358.94;;;11.88;nan
3082;BME280;1551;51.046;7.010;2023-02-18T09:38:55;101346.13;;;11.83;nan
3082;BME280;1551;51.046;7.010;2023-02-18T09:41:49;101357.19;;;11.93;nan
3082;BME280;1551;51.046;7.010;2023-02-18T09:44:43;101354.63;;;11.90;nan
3082;BME280;1551;51.046;7.010;2023-02-18T09:47:37;101340.06;;;11.98;nan
3082;BME280;1551;51.046;7.010;2023-02-18T09:50:33;101344.31;;;11.99;nan
3082;BME280;1551;51.046;7.010;2023-02-18T09:53:23;101346.91;;;11.99;nan
3082;BME280;1551;51.046;7.010;2023-02-18T09:56:16;101340.94;;;11.95;nan
3082;BME280;1551;51.046;7.010;2023-02-18T09:59:13;101323.00;;;11.89;nan
3082;BME280;1551;51.046;7.010;2023-02-18T10:02:09;101340.09;;;11.95;nan
3082;BME280;1551;51.046;7.010;2023-02-18T10:05:04;101338.41;;;11.91;nan
3082;BME280;1551;51.046;7.010;2023-02-18T10:07:59;101337.53;;;11.92;nan
3082;BME280;1551;51.046;7.010;2023-02-18T10:10:48;101337.53;;;11.90;nan
3082;BME280;1551;51.046;7.010;2023-02-18T10:13:39;101322.13;;;11.89;nan
3082;BME280;1551;51.046;7.010;2023-02-18T10:16:29;101332.38;;;11.96;nan
3082;BME280;1551;51.046;7.010;2023-02-18T10:19:33;101333.22;;;11.97;nan
3082;BME280;1551;51.046;7.010;2023-02-18T10:22:25;101311.88;;;11.93;nan
3082;BME280;1551;51.046;7.010;2023-02-18T10:25:19;101315.28;;;11.95;nan
3082;BME280;1551;51.046;7.010;2023-02-18T10:28:10;101333.19;;;12.01;nan
3082;BME280;1551;51.046;7.010;2023-02-18T10:31:04;101320.38;;;12.00;nan
3082;BME280;1551;51.046;7.010;2023-02-18T10:36:54;101310.13;;;11.98;nan
3082;BME280;1551;51.046;7.010;2023-02-18T10:40:20;101320.34;;;12.03;nan
3082;BME280;1551;51.046;7.010;2023-02-18T10:43:21;101364.81;;;12.03;nan
3082;BME280;1551;51.046;7.010;2023-02-18T10:46:26;101320.38;;;12.00;nan
3082;BME280;1551;51.046;7.010;2023-02-18T10:52:16;101331.53;;;11.93;nan
3082;BME280;1551;51.046;7.010;2023-02-18T10:55:09;101323.81;;;11.97;nan
3082;BME280;1551;51.046;7.010;2023-02-18T10:57:59;101334.97;;;11.89;nan
3082;BME280;1551;51.046;7.010;2023-02-18T11:00:48;101333.28;;;11.85;nan
3082;BME280;1551;51.046;7.010;2023-02-18T11:03:48;101342.72;;;11.80;nan
3082;BME280;1551;51.046;7.010;2023-02-18T11:06:46;101338.50;;;11.69;nan
3082;BME280;1551;51.046;7.010;2023-02-18T11:09:45;101349.59;;;11.71;nan
3082;BME280;1551;51.046;7.010;2023-02-18T11:12:47;101348.75;;;11.69;nan
3082;BME280;1551;51.046;7.010;2023-02-18T11:15:37;101331.66;;;11.61;nan
3082;BME280;1551;51.046;7.010;2023-02-18T11:18:43;101344.44;;;11.73;nan
3082;BME280;1551;51.046;7.010;2023-02-18T11:21:36;101342.69;;;11.83;nan
3082;BME280;1551;51.046;7.010;2023-02-18T11:24:25;101356.38;;;11.80;nan
3082;BME280;1551;51.046;7.010;2023-02-18T11:27:22;101347.88;;;11.61;nan
3082;BME280;1551;51.046;7.010;2023-02-18T11:33:18;101369.34;;;11.39;nan
3082;BME280;1551;51.046;7.010;2023-02-18T11:36:18;101343.72;;;11.32;nan
3082;BME280;1551;51.046;7.010;2023-02-18T11:39:25;101339.44;;;11.41;nan
3082;BME280;1551;51.046;7.010;2023-02-18T11:42:19;101342.84;;;11.46;nan
3082;BME280;1551;51.046;7.010;2023-02-18T11:45:26;101345.41;;;11.36;nan
3082;BME280;1551;51.046;7.010;2023-02-18T11:48:18;101338.56;;;11.38;nan
3082;BME280;1551;51.046;7.010;2023-02-18T11:51:25;101346.22;;;11.50;nan
3082;BME280;1551;51.046;7.010;2023-02-18T11:54:28;101336.81;;;11.52;nan
3082;BME280;1551;51.046;7.010;2023-02-18T11:57:21;101344.53;;;11.47;nan
3082;BME280;1551;51.046;7.010;2023-02-18T12:00:19;101346.25;;;11.41;nan
3082;BME280;1551;51.046;7.010;2023-02-18T12:03:38;101352.19;;;11.58;nan
3082;BME280;1551;51.046;7.010;2023-02-18T12:06:51;101341.09;;;11.54;nan
3082;BME280;1551;51.046;7.010;2023-02-18T12:09:47;101340.19;;;11.64;nan
3082;BME280;1551;51.046;7.010;2023-02-18T12:12:44;101343.63;;;11.65;nan
3082;BME280;1551;51.046;7.010;2023-02-18T12:18:51;101341.94;;;11.55;nan
3082;BME280;1551;51.046;7.010;2023-02-18T12:22:15;101329.13;;;11.55;nan
3082;BME280;1551;51.046;7.010;2023-02-18T12:28:31;101334.25;;;11.53;nan
3082;BME280;1551;51.046;7.010;2023-02-18T12:35:08;101322.28;;;11.57;nan
3082;BME280;1551;51.046;7.010;2023-02-18T12:41:35;101332.53;;;11.52;nan
3082;BME280;1551;51.046;7.010;2023-02-18T12:48:00;101322.31;;;11.46;nan
3082;BME280;1551;51.046;7.010;2023-02-18T12:54:03;101328.25;;;11.51;nan
3082;BME280;1551;51.046;7.010;2023-02-18T12:57:13;101322.31;;;11.46;nan
3082;BME280;1551;51.046;7.010;2023-02-18T13:09:20;101326.56;;;11.47;nan
3082;BME280;1551;51.046;7.010;2023-02-18T13:15:37;101314.69;;;11.31;nan
3082;BME280;1551;51.046;7.010;2023-02-18T13:18:33;101331.72;;;11.43;nan
3082;BME280;1551;51.046;7.010;2023-02-18T13:21:24;101322.31;;;11.51;nan
3082;BME280;1551;51.046;7.010;2023-02-18T13:24:28;101318.84;;;11.56;nan
3082;BME280;1551;51.046;7.010;2023-02-18T13:27:26;101325.69;;;11.60;nan
3082;BME280;1551;51.046;7.010;2023-02-18T13:30:32;101326.53;;;11.56;nan
3082;BME280;1551;51.046;7.010;2023-02-18T13:36:48;101317.97;;;11.66;nan
3082;BME280;1551;51.046;7.010;2023-02-18T13:39:49;101313.69;;;11.61;nan
3082;BME280;1551;51.046;7.010;2023-02-18T13:42:39;101316.25;;;11.67;nan
3082;BME280;1551;51.046;7.010;2023-02-18T13:45:30;101308.56;;;11.70;nan
3082;BME280;1551;51.046;7.010;2023-02-18T13:48:25;101321.41;;;11.68;nan
3082;BME280;1551;51.046;7.010;2023-02-18T13:51:26;101324.78;;;11.63;nan
3082;BME280;1551;51.046;7.010;2023-02-18T13:54:23;101323.13;;;11.59;nan
3082;BME280;1551;51.046;7.010;2023-02-18T13:57:18;101318.03;;;11.53;nan
3082;BME280;1551;51.046;7.010;2023-02-18T14:00:19;101315.41;;;11.59;nan
3082;BME280;1551;51.046;7.010;2023-02-18T14:03:32;101321.41;;;11.56;nan
3082;BME280;1551;51.046;7.010;2023-02-18T14:06:33;101312.91;;;11.53;nan
3082;BME280;1551;51.046;7.010;2023-02-18T14:18:25;101323.94;;;11.61;nan
3082;BME280;1551;51.046;7.010;2023-02-18T14:21:22;101320.53;;;11.65;nan
3082;BME280;1551;51.046;7.010;2023-02-18T14:24:42;101317.97;;;11.63;nan
3082;BME280;1551;51.046;7.010;2023-02-18T14:27:32;101318.81;;;11.67;nan
3082;BME280;1551;51.046;7.010;2023-02-18T14:33:14;101313.72;;;11.58;nan
3082;BME280;1551;51.046;7.010;2023-02-18T14:42:37;101315.44;;;11.69;nan
3082;BME280;1551;51.046;7.010;2023-02-18T14:52:11;101316.25;;;11.71;nan
3082;BME280;1551;51.046;7.010;2023-02-18T14:55:05;101300.88;;;11.71;nan
3082;BME280;1551;51.046;7.010;2023-02-18T14:58:05;101313.69;;;11.71;nan
3082;BME280;1551;51.046;7.010;2023-02-18T15:00:56;101306.81;;;11.75;nan
3082;BME280;1551;51.046;7.010;2023-02-18T15:03:47;101289.75;;;11.71;nan
3082;BME280;1551;51.046;7.010;2023-02-18T15:06:37;101307.72;;;11.71;nan
3082;BME280;1551;51.046;7.010;2023-02-18T15:09:26;101306.00;;;11.71;nan
3082;BME280;1551;51.046;7.010;2023-02-18T15:12:19;101305.09;;;11.77;nan
3082;BME280;1551;51.046;7.010;2023-02-18T15:15:12;101290.59;;;11.65;nan
3082;BME280;1551;51.046;7.010;2023-02-18T15:18:03;101271.84;;;11.56;nan
3082;BME280;1551;51.046;7.010;2023-02-18T15:20:52;101299.16;;;11.70;nan
3082;BME280;1551;51.046;7.010;2023-02-18T15:23:42;101297.47;;;11.68;nan
3082;BME280;1551;51.046;7.010;2023-02-18T15:26:31;101300.03;;;11.69;nan
3082;BME280;1551;51.046;7.010;2023-02-18T15:29:25;101297.44;;;11.63;nan
3082;BME280;1551;51.046;7.010;2023-02-18T15:32:18;101295.75;;;11.64;nan
3082;BME280;1551;51.046;7.010;2023-02-18T15:35:16;101302.59;;;11.68;nan
3082;BME280;1551;51.046;7.010;2023-02-18T15:38:14;101302.59;;;11.65;nan
3082;BME280;1551;51.046;7.010;2023-02-18T15:41:03;101298.34;;;11.62;nan
3082;BME280;1551;51.046;7.010;2023-02-18T15:44:01;101294.94;;;11.57;nan
3082;BME280;1551;51.046;7.010;2023-02-18T15:46:52;101296.59;;;11.64;nan
3082;BME280;1551;51.046;7.010;2023-02-18T15:49:45;101307.69;;;11.66;nan
3082;BME280;1551;51.046;7.010;2023-02-18T15:52:37;101305.13;;;11.72;nan
3082;BME280;1551;51.046;7.010;2023-02-18T15:55:31;101295.72;;;11.65;nan
3082;BME280;1551;51.046;7.010;2023-02-18T15:58:30;101299.16;;;11.77;nan
3082;BME280;1551;51.046;7.010;2023-02-18T16:01:28;101302.56;;;11.74;nan
3082;BME280;1551;51.046;7.010;2023-02-18T16:04:20;101303.41;;;11.79;nan
3082;BME280;1551;51.046;7.010;2023-02-18T16:07:49;101294.81;;;11.85;nan
3082;BME280;1551;51.046;7.010;2023-02-18T16:10:44;101305.06;;;11.82;nan
3082;BME280;1551;51.046;7.010;2023-02-18T16:13:35;101321.34;;;11.81;nan
3082;BME280;1551;51.046;7.010;2023-02-18T16:16:31;101313.63;;;11.88;nan
3082;BME280;1551;51.046;7.010;2023-02-18T16:19:23;101314.47;;;11.90;nan
3082;BME280;1551;51.046;7.010;2023-02-18T16:25:24;101305.88;;;11.91;nan
3082;BME280;1551;51.046;7.010;2023-02-18T16:28:22;101307.66;;;11.83;nan
3082;BME280;1551;51.046;7.010;2023-02-18T16:31:11;101312.75;;;11.88;nan
3082;BME280;1551;51.046;7.010;2023-02-18T16:34:00;101316.19;;;11.88;nan
3082;BME280;1551;51.046;7.010;2023-02-18T16:36:48;101314.47;;;11.87;nan
3082;BME280;1551;51.046;7.010;2023-02-18T16:43:19;101305.06;;;11.88;nan
3082;BME280;1551;51.046;7.010;2023-02-18T16:46:14;101307.59;;;11.92;nan
3082;BME280;1551;51.046;7.010;2023-02-18T16:49:03;101307.56;;;11.94;nan
3082;BME280;1551;51.046;7.010;2023-02-18T16:51:52;101309.31;;;11.95;nan
3082;BME280;1551;51.046;7.010;2023-02-18T16:54:42;101298.22;;;11.90;nan
3082;BME280;1551;51.046;7.010;2023-02-18T16:57:31;101301.63;;;11.89;nan
3082;BME280;1551;51.046;7.010;2023-02-18T17:00:21;101310.16;;;11.94;nan
3082;BME280;1551;51.046;7.010;2023-02-18T17:03:11;101309.31;;;11.92;nan
3082;BME280;1551;51.046;7.010;2023-02-18T17:06:01;101285.44;;;11.81;nan
3082;BME280;1551;51.046;7.010;2023-02-18T17:08:50;101315.28;;;11.92;nan
3082;BME280;1551;51.046;7.010;2023-02-18T17:11:39;101311.88;;;11.93;nan
3082;BME280;1551;51.046;7.010;2023-02-18T17:14:28;101312.72;;;11.95;nan
3082;BME280;1551;51.046;7.010;2023-02-18T17:17:17;101311.88;;;11.95;nan
3082;BME280;1551;51.046;7.010;2023-02-18T17:20:09;101324.69;;;11.95;nan
3082;BME280;1551;51.046;7.010;2023-02-18T17:23:02;101308.44;;;11.94;nan
3082;BME280;1551;51.046;7.010;2023-02-18T17:25:52;101310.13;;;11.97;nan
3082;BME280;1551;51.046;7.010;2023-02-18T17:28:41;101309.25;;;12.01;nan
3082;BME280;1551;51.046;7.010;2023-02-18T17:31:35;101325.47;;;12.06;nan
3082;BME280;1551;51.046;7.010;2023-02-18T17:34:27;101291.44;;;11.81;nan
3082;BME280;1551;51.046;7.010;2023-02-18T17:37:18;101323.84;;;11.93;nan